Time;durP1;ratioP1;P1;durP2;ratioP2;P2;SDS_P1;SDS_P2;PMS_P1;PMS_P2;Temp;Humidity;BMP_temperature;BMP_pressure;BME280_temperature;BME280_humidity;BME280_pressure;Samples;Min_cycle;Max_cycle;Signal;HPM_P1;HPM_P2
2021/06/10 00:00:00;;;;;;;1999.90;999.90;;;11.70;99.90;;;;;;5093519;28;20164;-59
2021/06/10 00:02:27;;;;;;;1999.90;999.90;;;11.70;99.90;;;;;;5092895;28;20220;-60
2021/06/10 00:04:54;;;;;;;1999.90;999.90;;;11.70;99.90;;;;;;5092885;28;20241;-58
2021/06/10 00:07:21;;;;;;;1999.90;999.90;;;11.70;99.90;;;;;;5093346;28;20662;-60
2021/06/10 00:09:48;;;;;;;1999.90;999.90;;;11.60;99.90;;;;;;5093063;28;20199;-60
2021/06/10 00:12:19;;;;;;;1999.90;999.90;;;11.60;99.90;;;;;;5092946;28;20243;-58
2021/06/10 00:14:47;;;;;;;1999.90;999.90;;;11.70;99.90;;;;;;5093159;28;20160;-59
2021/06/10 00:17:14;;;;;;;1999.90;999.90;;;11.60;99.90;;;;;;5092755;28;20179;-59
2021/06/10 00:19:41;;;;;;;1999.90;999.90;;;11.50;99.90;;;;;;5093017;28;20175;-60
2021/06/10 00:22:07;;;;;;;1999.90;999.90;;;11.50;99.90;;;;;;5092724;28;20637;-60
2021/06/10 00:24:34;;;;;;;1999.90;999.90;;;11.50;99.90;;;;;;5092942;28;20196;-58
2021/06/10 00:27:01;;;;;;;1999.90;999.90;;;11.50;99.90;;;;;;5092447;28;20263;-59
2021/06/10 00:29:28;;;;;;;1999.90;999.90;;;11.40;99.90;;;;;;5092854;28;20187;-55
2021/06/10 00:31:54;;;;;;;1999.90;999.90;;;11.40;99.90;;;;;;5092276;28;20217;-61
2021/06/10 00:34:21;;;;;;;1999.90;999.90;;;11.50;99.90;;;;;;5092772;28;20171;-60
2021/06/10 00:36:48;;;;;;;1999.90;999.90;;;11.50;99.90;;;;;;5091185;28;20183;-59
2021/06/10 00:39:15;;;;;;;1999.90;999.90;;;11.50;99.90;;;;;;5092349;28;20167;-58
2021/06/10 00:41:42;;;;;;;1999.90;999.90;;;11.50;99.90;;;;;;5092725;28;20565;-58
2021/06/10 00:44:11;;;;;;;1999.90;999.90;;;11.60;99.90;;;;;;5092065;28;20303;-58
2021/06/10 00:46:38;;;;;;;1999.90;999.90;;;11.40;99.90;;;;;;5092168;28;20637;-58
2021/06/10 00:49:05;;;;;;;1999.90;999.90;;;11.40;99.90;;;;;;5092410;28;20160;-59
2021/06/10 00:51:32;;;;;;;1999.90;999.90;;;11.30;99.90;;;;;;5092345;28;20193;-59
2021/06/10 00:54:00;;;;;;;1999.90;999.90;;;11.30;99.90;;;;;;5091816;28;20251;-58
2021/06/10 00:56:27;;;;;;;1999.90;999.90;;;11.40;99.90;;;;;;5092278;28;20622;-57
2021/06/10 00:58:54;;;;;;;1999.90;999.90;;;11.40;99.90;;;;;;5091969;28;20198;-57
2021/06/10 01:01:21;;;;;;;1999.90;999.90;;;11.30;99.90;;;;;;5092093;28;20267;-58
2021/06/10 01:03:48;;;;;;;1999.90;999.90;;;11.20;99.90;;;;;;5092033;28;20681;-58
2021/06/10 01:06:44;;;;;;;1999.90;999.90;;;11.20;99.90;;;;;;5091930;28;20640;-58
2021/06/10 01:09:29;;;;;;;1999.90;999.90;;;11.30;99.90;;;;;;5082836;28;20237;-57
2021/06/10 01:12:05;;;;;;;1999.90;999.90;;;11.30;99.90;;;;;;5092022;28;20144;-58
2021/06/10 01:14:54;;;;;;;1999.90;999.90;;;11.20;99.90;;;;;;5091153;28;20163;-58
2021/06/10 01:17:23;;;;;;;1999.90;999.90;;;11.10;99.90;;;;;;5092143;28;20236;-58
2021/06/10 01:20:08;;;;;;;1999.90;999.90;;;11.10;99.90;;;;;;5091729;28;20221;-58
2021/06/10 01:22:59;;;;;;;1999.90;999.90;;;11.20;99.90;;;;;;5091752;28;20148;-60
2021/06/10 01:25:37;;;;;;;1999.90;999.90;;;11.20;99.90;;;;;;5092065;28;20210;-59
2021/06/10 01:28:14;;;;;;;1999.90;999.90;;;11.30;99.90;;;;;;5091455;28;20164;-58
2021/06/10 01:30:51;;;;;;;1999.90;999.90;;;11.30;99.90;;;;;;5092036;28;20265;-58
2021/06/10 01:33:22;;;;;;;1999.90;999.90;;;11.30;99.90;;;;;;5091575;28;20585;-57
2021/06/10 01:35:55;;;;;;;1999.90;999.90;;;11.30;99.90;;;;;;5091777;28;20160;-58
2021/06/10 01:38:24;;;;;;;1999.90;999.90;;;11.20;99.90;;;;;;5092055;28;20170;-59
2021/06/10 01:40:52;;;;;;;1999.90;999.90;;;11.20;99.90;;;;;;5091498;28;20209;-58
2021/06/10 01:43:20;;;;;;;1999.90;999.90;;;11.10;99.90;;;;;;5091003;28;20609;-58
2021/06/10 01:45:50;;;;;;;1999.90;999.90;;;11.10;99.90;;;;;;5091763;28;20637;-60
2021/06/10 01:48:20;;;;;;;1999.90;999.90;;;11.00;99.90;;;;;;5091125;28;20190;-60
2021/06/10 01:50:54;;;;;;;1999.90;999.90;;;11.00;99.90;;;;;;5091165;28;20172;-60
2021/06/10 01:53:22;;;;;;;1999.90;999.90;;;11.00;99.90;;;;;;5091569;28;20160;-58
2021/06/10 01:55:50;;;;;;;1999.90;999.90;;;11.00;99.90;;;;;;5091035;28;20183;-58
2021/06/10 01:58:18;;;;;;;1999.90;999.90;;;10.90;99.90;;;;;;5090905;28;20527;-58
2021/06/10 02:00:46;;;;;;;1999.90;999.90;;;10.80;99.90;;;;;;5091499;28;20233;-58
2021/06/10 02:03:14;;;;;;;1999.90;999.90;;;10.80;99.90;;;;;;5090475;28;20219;-58
2021/06/10 02:05:42;;;;;;;1999.90;999.90;;;10.70;99.90;;;;;;5106979;28;20603;-57
2021/06/10 02:08:11;;;;;;;1999.90;999.90;;;10.70;99.90;;;;;;5091154;28;20160;-59
2021/06/10 02:10:40;;;;;;;1999.90;999.90;;;10.80;99.90;;;;;;5091411;28;20171;-58
2021/06/10 02:13:08;;;;;;;1999.90;999.90;;;10.90;99.90;;;;;;5091010;28;20160;-58
2021/06/10 02:15:36;;;;;;;1999.90;999.90;;;10.80;99.90;;;;;;5091344;28;20168;-58
2021/06/10 02:18:03;;;;;;;1999.90;999.90;;;10.90;99.90;;;;;;5090691;28;20191;-58
2021/06/10 02:20:30;;;;;;;1999.90;999.90;;;10.90;99.90;;;;;;5091042;28;20168;-57
2021/06/10 02:22:57;;;;;;;1999.90;999.90;;;10.90;99.90;;;;;;5090817;28;20186;-58
2021/06/10 02:25:23;;;;;;;1999.90;999.90;;;10.90;99.90;;;;;;5091916;28;20196;-60
2021/06/10 02:27:50;;;;;;;1999.90;999.90;;;10.90;99.90;;;;;;5095170;28;20160;-57
2021/06/10 02:30:17;;;;;;;1999.90;999.90;;;11.00;99.90;;;;;;5095030;28;20171;-59
2021/06/10 02:32:44;;;;;;;1999.90;999.90;;;10.90;99.90;;;;;;5095012;28;20176;-58
2021/06/10 02:35:12;;;;;;;1999.90;999.90;;;10.90;99.90;;;;;;5094658;28;20163;-60
2021/06/10 02:37:43;;;;;;;1999.90;999.90;;;10.90;99.90;;;;;;5095101;28;20171;-57
2021/06/10 02:40:13;;;;;;;1999.90;999.90;;;10.90;99.90;;;;;;5094531;28;20191;-58
2021/06/10 02:42:40;;;;;;;1999.90;999.90;;;10.80;99.90;;;;;;5095053;28;20160;-58
2021/06/10 02:45:08;;;;;;;1999.90;999.90;;;10.80;99.90;;;;;;5094364;28;20283;-59
2021/06/10 02:47:37;;;;;;;1999.90;999.90;;;10.90;99.90;;;;;;5094777;28;20365;-60
2021/06/10 02:50:07;;;;;;;1999.90;999.90;;;10.70;99.90;;;;;;5094826;28;20164;-60
2021/06/10 02:52:36;;;;;;;1999.90;999.90;;;10.70;99.90;;;;;;5094451;28;20164;-58
2021/06/10 02:55:03;;;;;;;1999.90;999.90;;;10.50;99.90;;;;;;5094431;28;20160;-59
2021/06/10 02:57:30;;;;;;;1999.90;999.90;;;10.60;99.90;;;;;;5094692;28;20171;-59
2021/06/10 02:59:57;;;;;;;1999.90;999.90;;;10.70;99.90;;;;;;5110054;28;20164;-59
2021/06/10 03:02:25;;;;;;;1999.90;999.90;;;10.70;99.90;;;;;;5094098;28;20235;-58
2021/06/10 03:04:52;;;;;;;1999.90;999.90;;;10.80;99.90;;;;;;5094520;28;20233;-59
2021/06/10 03:07:21;;;;;;;1999.90;999.90;;;10.70;99.90;;;;;;5094080;28;20169;-58
2021/06/10 03:09:48;;;;;;;1999.90;999.90;;;10.80;99.90;;;;;;5094120;28;20178;-57
2021/06/10 03:12:18;;;;;;;1999.90;999.90;;;10.80;99.90;;;;;;5094192;28;20555;-58
2021/06/10 03:14:46;;;;;;;1999.90;999.90;;;10.80;99.90;;;;;;5094207;28;20259;-58
2021/06/10 03:17:18;;;;;;;1999.90;999.90;;;10.80;99.90;;;;;;5094322;28;20177;-57
2021/06/10 03:19:45;;;;;;;1999.90;999.90;;;10.80;99.90;;;;;;5094175;28;20527;-58
2021/06/10 03:22:12;;;;;;;1999.90;999.90;;;10.80;99.90;;;;;;5093890;28;20164;-58
2021/06/10 03:24:40;;;;;;;1999.90;999.90;;;10.50;99.90;;;;;;5093948;28;20204;-58
2021/06/10 03:27:08;;;;;;;1999.90;999.90;;;10.40;99.90;;;;;;5093924;28;20542;-58
2021/06/10 03:29:35;;;;;;;1999.90;999.90;;;10.40;99.90;;;;;;5093887;28;20167;-58
2021/06/10 03:32:03;;;;;;;1999.90;999.90;;;10.30;99.90;;;;;;5093845;28;20168;-58
2021/06/10 03:34:33;;;;;;;1999.90;999.90;;;10.30;99.90;;;;;;5093651;28;20259;-58
2021/06/10 03:37:01;;;;;;;1999.90;999.90;;;10.30;99.90;;;;;;5093160;28;20160;-59
2021/06/10 03:39:30;;;;;;;1999.90;999.90;;;10.20;99.90;;;;;;5093950;28;20530;-58
2021/06/10 03:41:59;;;;;;;1999.90;999.90;;;10.20;99.90;;;;;;5093548;28;20160;-60
2021/06/10 03:44:28;;;;;;;1999.90;999.90;;;10.20;99.90;;;;;;5093027;28;20651;-59
2021/06/10 03:46:56;;;;;;;1999.90;999.90;;;10.30;99.90;;;;;;5093870;28;20289;-59
2021/06/10 03:49:23;;;;;;;1999.90;999.90;;;10.40;99.90;;;;;;5093392;28;20206;-58
2021/06/10 03:51:54;;;;;;;1999.90;999.90;;;10.40;99.90;;;;;;5093576;28;20217;-57
2021/06/10 03:54:21;;;;;;;1999.90;999.90;;;10.40;99.90;;;;;;5093650;28;20179;-59
2021/06/10 03:56:48;;;;;;;1999.90;999.90;;;10.40;99.90;;;;;;5093297;28;20176;-58
2021/06/10 03:59:16;;;;;;;1999.90;999.90;;;10.50;99.90;;;;;;5093196;28;20525;-57
2021/06/10 04:01:43;;;;;;;1999.90;999.90;;;10.50;99.90;;;;;;5093408;28;20164;-58
2021/06/10 04:04:10;;;;;;;1999.90;999.90;;;10.50;99.90;;;;;;5093042;28;20198;-58
2021/06/10 04:06:38;;;;;;;1999.90;999.90;;;10.40;99.90;;;;;;5093027;28;20530;-59
2021/06/10 04:09:09;;;;;;;1999.90;999.90;;;10.40;99.90;;;;;;5093136;28;20254;-58
2021/06/10 04:11:38;;;;;;;1999.90;999.90;;;10.40;99.90;;;;;;5092891;28;20153;-60
2021/06/10 04:14:05;;;;;;;1999.90;999.90;;;10.40;99.90;;;;;;5093090;28;20190;-59
2021/06/10 04:16:33;;;;;;;1999.90;999.90;;;10.40;99.90;;;;;;5092863;28;20225;-57
2021/06/10 04:18:59;;;;;;;1999.90;999.90;;;10.40;99.90;;;;;;5092913;28;20164;-56
2021/06/10 04:21:26;;;;;;;1999.90;999.90;;;10.40;99.90;;;;;;5093092;28;20160;-58
2021/06/10 04:23:53;;;;;;;1999.90;999.90;;;10.40;99.90;;;;;;5092971;28;20203;-58
2021/06/10 04:26:20;;;;;;;1999.90;999.90;;;10.40;99.90;;;;;;5092662;28;20186;-59
2021/06/10 04:28:48;;;;;;;1999.90;999.90;;;10.40;99.90;;;;;;5092766;28;20164;-57
2021/06/10 04:31:19;;;;;;;1999.90;999.90;;;10.40;99.90;;;;;;5092592;28;20273;-58
2021/06/10 04:33:47;;;;;;;1999.90;999.90;;;10.40;99.90;;;;;;5092538;28;20172;-58
2021/06/10 04:36:14;;;;;;;1999.90;999.90;;;10.40;99.90;;;;;;5092410;28;20313;-58
2021/06/10 04:38:42;;;;;;;1999.90;999.90;;;10.40;99.90;;;;;;5091916;28;20799;-58
2021/06/10 04:41:10;;;;;;;1999.90;999.90;;;10.40;99.90;;;;;;5091918;28;20156;-59
2021/06/10 04:43:37;;;;;;;1999.90;999.90;;;10.40;99.90;;;;;;5092507;28;20248;-58
2021/06/10 04:46:03;;;;;;;1999.90;999.90;;;10.40;99.90;;;;;;5091901;28;20168;-58
2021/06/10 04:48:32;;;;;;;1999.90;999.90;;;10.40;99.90;;;;;;5090545;28;20175;-58
2021/06/10 04:50:59;;;;;;;1999.90;999.90;;;10.40;99.90;;;;;;5092291;28;20253;-58
2021/06/10 04:53:25;;;;;;;1999.90;999.90;;;10.30;99.90;;;;;;5091830;28;20546;-59
2021/06/10 04:55:52;;;;;;;1999.90;999.90;;;10.40;99.90;;;;;;5092274;28;20637;-58
2021/06/10 04:58:19;;;;;;;1999.90;999.90;;;10.40;99.90;;;;;;5092299;28;20641;-57
2021/06/10 05:00:46;;;;;;;1999.90;999.90;;;10.40;99.90;;;;;;5091979;28;20626;-60
2021/06/10 05:03:13;;;;;;;1999.90;999.90;;;10.40;99.90;;;;;;5091615;28;20265;-56
2021/06/10 05:05:41;;;;;;;1999.90;999.90;;;10.30;99.90;;;;;;5092121;28;20170;-58
2021/06/10 05:08:08;;;;;;;1999.90;999.90;;;10.40;99.90;;;;;;5091544;28;20183;-57
2021/06/10 05:10:35;;;;;;;1999.90;999.90;;;10.30;99.90;;;;;;5091814;28;20168;-56
2021/06/10 05:13:02;;;;;;;1999.90;999.90;;;10.40;99.90;;;;;;5091922;28;20725;-57
2021/06/10 05:15:28;;;;;;;1999.90;999.90;;;10.30;99.90;;;;;;5091584;28;20622;-57
2021/06/10 05:17:55;;;;;;;1999.90;999.90;;;10.30;99.90;;;;;;5091933;28;20172;-58
2021/06/10 05:20:23;;;;;;;1999.90;999.90;;;10.30;99.90;;;;;;5091706;28;20274;-57
2021/06/10 05:22:50;;;;;;;1999.90;999.90;;;10.30;99.90;;;;;;5091683;28;20168;-58
2021/06/10 05:25:17;;;;;;;1999.90;999.90;;;10.30;99.90;;;;;;5091477;28;20206;-58
2021/06/10 05:27:43;;;;;;;1999.90;999.90;;;10.20;99.90;;;;;;5091669;28;20164;-58
2021/06/10 05:30:11;;;;;;;1999.90;999.90;;;10.20;99.90;;;;;;5091160;28;20582;-58
2021/06/10 05:32:38;;;;;;;1999.90;999.90;;;10.20;99.90;;;;;;5091399;28;20552;-60
2021/06/10 05:35:05;;;;;;;1999.90;999.90;;;10.30;99.90;;;;;;5091275;28;20179;-58
2021/06/10 05:37:32;;;;;;;1999.90;999.90;;;10.20;99.90;;;;;;5091238;28;20176;-60
2021/06/10 05:39:59;;;;;;;1999.90;999.90;;;10.20;99.90;;;;;;5091198;28;20261;-60
2021/06/10 05:42:26;;;;;;;1999.90;999.90;;;10.20;99.90;;;;;;5091342;28;20203;-59
2021/06/10 05:44:52;;;;;;;1999.90;999.90;;;10.20;99.90;;;;;;5090891;28;20195;-59
2021/06/10 05:47:19;;;;;;;1999.90;999.90;;;10.20;99.90;;;;;;5091437;28;20532;-59
2021/06/10 05:49:46;;;;;;;1999.90;999.90;;;10.20;99.90;;;;;;5091034;28;20159;-58
2021/06/10 05:52:13;;;;;;;1999.90;999.90;;;10.20;99.90;;;;;;5090534;28;20179;-56
2021/06/10 05:54:40;;;;;;;1999.90;999.90;;;10.20;99.90;;;;;;5091259;28;20171;-59
2021/06/10 05:57:08;;;;;;;1999.90;999.90;;;10.30;99.90;;;;;;5090836;28;20725;-60
2021/06/10 05:59:35;;;;;;;1999.90;999.90;;;10.20;99.90;;;;;;5090686;28;20210;-59
2021/06/10 06:02:02;;;;;;;1999.90;999.90;;;10.30;99.90;;;;;;5090851;28;20207;-49
2021/06/10 06:04:28;;;;;;;1999.90;999.90;;;10.40;99.90;;;;;;5090445;28;20195;-56
2021/06/10 06:06:55;;;;;;;1999.90;999.90;;;10.60;99.90;;;;;;5089847;28;20632;-56
2021/06/10 06:09:22;;;;;;;1999.90;999.90;;;10.80;99.90;;;;;;5090601;28;20170;-58
2021/06/10 06:11:51;;;;;;;1999.90;999.90;;;11.00;99.90;;;;;;5090307;28;20195;-54
2021/06/10 06:14:24;;;;;;;1999.90;999.90;;;11.10;99.90;;;;;;5101239;28;20589;-50
2021/06/10 06:16:52;;;;;;;1999.90;999.90;;;11.30;99.90;;;;;;5110460;28;20205;-55
2021/06/10 06:19:19;;;;;;;1999.90;999.90;;;11.70;99.90;;;;;;5110044;28;20185;-57
2021/06/10 06:21:46;;;;;;;1999.90;999.90;;;11.90;99.90;;;;;;5110521;28;20250;-51
2021/06/10 06:24:13;;;;;;;1999.90;999.90;;;11.80;99.90;;;;;;5110562;28;20203;-59
2021/06/10 06:26:42;;;;;;;1999.90;999.90;;;11.60;99.90;;;;;;5108327;28;20263;-61
2021/06/10 06:29:08;;;;;;;1999.90;999.90;;;11.60;99.90;;;;;;5110234;28;20175;-61
2021/06/10 06:31:37;;;;;;;1999.90;999.90;;;12.50;99.90;;;;;;5109368;28;20203;-59
2021/06/10 06:34:04;;;;;;;1999.90;999.90;;;13.30;99.90;;;;;;5109938;28;20163;-60
2021/06/10 06:36:31;;;;;;;1999.90;999.90;;;13.90;99.90;;;;;;5109761;28;20626;-60
2021/06/10 06:38:57;;;;;;;1999.90;999.90;;;14.10;99.90;;;;;;5109328;28;20622;-57
2021/06/10 06:41:25;;;;;;;1999.90;999.90;;;14.10;99.90;;;;;;5109836;28;20182;-54
2021/06/10 06:43:52;;;;;;;1999.90;999.90;;;14.10;99.90;;;;;;5109695;28;20443;-50
2021/06/10 06:46:19;;;;;;;1999.90;999.90;;;14.10;99.90;;;;;;5109011;28;20245;-52
2021/06/10 06:48:46;;;;;;;1999.90;999.90;;;13.90;99.90;;;;;;5109791;28;20268;-50
2021/06/10 06:51:13;;;;;;;1999.90;999.90;;;14.20;99.90;;;;;;5109688;28;20186;-51
2021/06/10 06:53:39;;;;;;;1999.90;999.90;;;14.60;99.90;;;;;;5108754;28;20244;-55
2021/06/10 06:56:06;;;;;;;1999.90;999.90;;;14.80;99.90;;;;;;5095050;28;20172;-57
2021/06/10 06:58:33;;;;;;;1999.90;999.90;;;15.00;99.90;;;;;;5088791;28;20594;-52
2021/06/10 07:01:41;;;;;;;1999.90;999.90;;;15.00;99.90;;;;;;5089078;28;20176;-61
2021/06/10 07:04:07;;;;;;;1999.90;999.90;;;15.00;99.90;;;;;;5089584;28;20223;-59
2021/06/10 07:06:34;;;;;;;1999.90;999.90;;;14.70;99.90;;;;;;5088608;28;20201;-53
2021/06/10 07:09:01;;;;;;;1999.90;999.90;;;14.40;99.90;;;;;;5089313;28;20178;-55
2021/06/10 07:11:28;;;;;;;1999.90;999.90;;;14.10;99.90;;;;;;5090545;28;20238;-59
2021/06/10 07:13:54;;;;;;;1999.90;999.90;;;13.90;99.90;;;;;;5092570;28;20308;-57
2021/06/10 07:16:21;;;;;;;1999.90;999.90;;;13.70;99.90;;;;;;5092445;28;20175;-58
2021/06/10 07:18:48;;;;;;;1999.90;999.90;;;13.60;99.90;;;;;;5092866;28;20175;-56
2021/06/10 07:21:15;;;;;;;1999.90;999.90;;;13.60;99.90;;;;;;5092427;28;20171;-47
2021/06/10 07:23:41;;;;;;;1999.90;999.90;;;14.00;99.90;;;;;;5092786;28;20196;-53
2021/06/10 07:26:08;;;;;;;1999.90;999.90;;;14.10;99.90;;;;;;5092631;28;20648;-53
2021/06/10 07:28:35;;;;;;;1999.90;999.90;;;14.10;99.90;;;;;;5092182;28;20171;-56
2021/06/10 07:31:02;;;;;;;1999.90;999.90;;;14.20;99.90;;;;;;5092376;28;20164;-51
2021/06/10 07:33:28;;;;;;;1999.90;999.90;;;14.30;99.90;;;;;;5092580;28;20164;-57
2021/06/10 07:35:55;;;;;;;1999.90;999.90;;;14.30;99.90;;;;;;5108110;28;20168;-52
2021/06/10 07:38:22;;;;;;;1999.90;999.90;;;14.40;99.90;;;;;;5092330;28;20172;-54
2021/06/10 07:40:49;;;;;;;1999.90;999.90;;;14.30;99.90;;;;;;5092348;28;20601;-51
2021/06/10 07:43:16;;;;;;;1999.90;999.90;;;14.20;99.90;;;;;;5091903;28;20175;-50
2021/06/10 07:45:43;;;;;;;1999.90;999.90;;;14.30;99.90;;;;;;5092081;28;20201;-51
2021/06/10 07:48:10;;;;;;;1999.90;999.90;;;15.00;99.90;;;;;;5092681;28;20168;-50
2021/06/10 07:50:37;;;;;;;1999.90;999.90;;;15.40;99.90;;;;;;5091241;28;20195;-58
2021/06/10 07:53:04;;;;;;;1999.90;999.90;;;15.20;99.90;;;;;;5091148;28;20171;-56
2021/06/10 07:55:31;;;;;;;1999.90;999.90;;;15.20;99.90;;;;;;5091087;28;20207;-57
2021/06/10 07:58:01;;;;;;;1999.90;999.90;;;15.10;99.90;;;;;;5091999;28;20535;-53
2021/06/10 08:00:28;;;;;;;1999.90;999.90;;;15.30;99.90;;;;;;5091521;28;20207;-47
2021/06/10 08:02:58;;;;;;;1999.90;999.90;;;15.20;99.90;;;;;;5091101;28;20218;-56
2021/06/10 08:05:25;;;;;;;1999.90;999.90;;;15.50;99.90;;;;;;5090247;28;20200;-49
2021/06/10 08:07:54;;;;;;;1999.90;999.90;;;15.50;99.90;;;;;;5091915;28;20255;-59
2021/06/10 08:10:22;;;;;;;1999.90;999.90;;;15.50;99.90;;;;;;5091108;28;20179;-53
2021/06/10 08:12:49;;;;;;;1999.90;999.90;;;16.00;99.90;;;;;;5091585;28;20436;-59
2021/06/10 08:15:17;;;;;;;1999.90;999.90;;;16.10;99.90;;;;;;5091578;28;20509;-53
2021/06/10 08:17:44;;;;;;;1999.90;999.90;;;16.20;99.90;;;;;;5090581;28;20251;-50
2021/06/10 08:20:12;;;;;;;1999.90;999.90;;;16.20;99.90;;;;;;5091407;28;20251;-56
2021/06/10 08:22:40;;;;;;;1999.90;999.90;;;16.20;99.90;;;;;;5091544;28;20184;-62
2021/06/10 08:25:07;;;;;;;1999.90;999.90;;;16.30;99.90;;;;;;5090982;28;20681;-58
2021/06/10 08:27:38;;;;;;;1999.90;999.90;;;16.40;99.90;;;;;;5091157;28;20164;-61
2021/06/10 08:30:06;;;;;;;1999.90;999.90;;;16.40;99.90;;;;;;5091857;28;20152;-60
2021/06/10 08:32:33;;;;;;;1999.90;999.90;;;16.50;99.90;;;;;;5090979;28;20556;-59
2021/06/10 08:35:00;;;;;;;1999.90;999.90;;;16.60;99.90;;;;;;5090835;28;20168;-60
2021/06/10 08:37:27;;;;;;;1999.90;999.90;;;16.70;99.90;;;;;;5089381;28;20233;-61
2021/06/10 08:39:54;;;;;;;1999.90;999.90;;;16.80;99.90;;;;;;5090874;28;20175;-59
2021/06/10 08:42:21;;;;;;;1999.90;999.90;;;16.90;99.90;;;;;;5090961;28;20529;-60
2021/06/10 08:44:48;;;;;;;1999.90;999.90;;;17.10;99.90;;;;;;5090114;28;20212;-61
2021/06/10 08:47:20;;;;;;;1999.90;999.90;;;17.20;99.90;;;;;;5090100;28;20200;-58
2021/06/10 08:49:49;;;;;;;1999.90;999.90;;;17.30;99.90;;;;;;5090839;28;20169;-62
2021/06/10 08:52:16;;;;;;;1999.90;999.90;;;17.40;99.90;;;;;;5090439;28;20172;-56
2021/06/10 08:54:43;;;;;;;1999.90;999.90;;;18.20;99.90;;;;;;5090233;28;20799;-58
2021/06/10 08:57:11;;;;;;;1999.90;999.90;;;18.70;98.40;;;;;;5091459;28;21065;-58
2021/06/10 08:59:38;;;;;;;1999.90;999.90;;;18.70;98.30;;;;;;5090759;28;20172;-59
2021/06/10 09:02:05;;;;;;;1999.90;999.90;;;18.60;97.90;;;;;;5094658;28;20210;-59
2021/06/10 09:04:33;;;;;;;1999.90;999.90;;;18.50;97.50;;;;;;5111230;28;20199;-60
2021/06/10 09:07:03;;;;;;;1999.90;999.90;;;18.50;98.50;;;;;;5111060;28;20186;-60
2021/06/10 09:09:36;;;;;;;1999.90;999.90;;;18.50;97.40;;;;;;5110719;28;20197;-62
2021/06/10 09:12:06;;;;;;;1999.90;999.90;;;18.60;96.40;;;;;;5104060;28;20621;-63
2021/06/10 09:15:01;;;;;;;1999.90;999.90;;;18.70;96.50;;;;;;5089063;28;20600;-59
2021/06/10 09:17:34;;;;;;;1999.90;999.90;;;19.00;93.90;;;;;;5088915;28;20194;-59
2021/06/10 09:20:02;;;;;;;1999.90;999.90;;;19.00;93.60;;;;;;5088195;28;20164;-67
2021/06/10 09:22:34;;;;;;;1999.90;999.90;;;19.20;93.50;;;;;;5088883;28;20168;-62
2021/06/10 09:25:10;;;;;;;1999.90;999.90;;;19.20;93.60;;;;;;5087586;28;20203;-62
2021/06/10 09:27:59;;;;;;;1999.90;999.90;;;19.40;92.30;;;;;;5087941;28;20163;-60
2021/06/10 09:30:34;;;;;;;1999.90;999.90;;;19.50;92.20;;;;;;5096347;28;20164;-62
2021/06/10 09:33:04;;;;;;;1999.90;999.90;;;19.60;91.80;;;;;;5111046;28;20159;-60
2021/06/10 09:35:37;;;;;;;1999.90;999.90;;;19.60;92.10;;;;;;5110672;28;20174;-62
2021/06/10 09:38:24;;;;;;;1999.90;999.90;;;19.70;91.70;;;;;;5110608;28;20282;-64
2021/06/10 09:41:01;;;;;;;1999.90;999.90;;;19.70;93.00;;;;;;5099608;28;20178;-61
2021/06/10 09:43:55;;;;;;;1999.90;999.90;;;19.90;91.70;;;;;;5089512;28;20247;-58
2021/06/10 09:46:21;;;;;;;1999.90;999.90;;;20.00;92.90;;;;;;5089355;28;20179;-58
2021/06/10 09:49:04;;;;;;;1999.90;999.90;;;20.20;92.80;;;;;;5090042;28;20622;-63
2021/06/10 09:51:31;;;;;;;1999.90;999.90;;;20.30;93.50;;;;;;5090847;28;20201;-60
2021/06/10 09:53:59;;;;;;;1999.90;999.90;;;20.50;93.20;;;;;;5097740;28;20159;-63
2021/06/10 09:56:26;;;;;;;1999.90;999.90;;;20.70;92.40;;;;;;5111009;28;20178;-59
2021/06/10 09:59:03;;;;;;;1999.90;999.90;;;20.80;92.90;;;;;;5111010;28;20282;-60
2021/06/10 10:13:53;;;;;;;1999.90;999.90;;;21.10;91.00;;;;;;5169072;27;20443;-61
2021/06/10 10:16:25;;;;;;;1999.90;999.90;;;21.90;89.00;;;;;;5148422;27;20280;-57
2021/06/10 10:18:54;;;;;;;1999.90;999.90;;;22.00;83.50;;;;;;5147663;27;20552;-54
2021/06/10 10:21:27;;;;;;;1999.90;999.90;;;22.10;84.50;;;;;;5139686;27;20694;-53
2021/06/10 10:24:00;;;;;;;1999.90;999.90;;;22.30;83.20;;;;;;5147567;27;20211;-60
2021/06/10 10:26:30;;;;;;;1999.90;999.90;;;22.30;80.20;;;;;;5147740;27;20204;-59
2021/06/10 10:28:59;;;;;;;1999.90;999.90;;;22.40;78.80;;;;;;5148501;27;20169;-59
2021/06/10 10:31:28;;;;;;;1999.90;999.90;;;22.60;75.80;;;;;;5147847;27;20209;-58
2021/06/10 10:33:55;;;;;;;1999.90;999.90;;;22.70;69.50;;;;;;5142514;27;20163;-58
2021/06/10 10:36:41;;;;;;;1999.90;999.90;;;22.90;68.00;;;;;;5136998;27;20170;-59
2021/06/10 10:39:09;;;;;;;1999.90;999.90;;;23.00;69.10;;;;;;5128592;27;20178;-58
2021/06/10 10:41:53;;;;;;;1999.90;999.90;;;23.00;69.00;;;;;;5126833;27;20246;-60
2021/06/10 10:44:29;;;;;;;1999.90;999.90;;;23.10;68.90;;;;;;5127335;27;20231;-58
2021/06/10 10:47:10;;;;;;;1999.90;999.90;;;23.20;68.10;;;;;;5126231;27;20265;-57
2021/06/10 10:49:46;;;;;;;1999.90;999.90;;;23.40;68.40;;;;;;5127177;27;20205;-58
2021/06/10 10:52:38;;;;;;;1999.90;999.90;;;23.60;66.10;;;;;;5127319;27;20198;-57
2021/06/10 10:55:22;;;;;;;1999.90;999.90;;;23.70;62.40;;;;;;5124729;28;20588;-58
2021/06/10 10:58:01;;;;;;;1999.90;999.90;;;23.70;61.80;;;;;;5127594;27;20289;-58
2021/06/10 11:00:49;;;;;;;1999.90;999.90;;;23.70;61.10;;;;;;5126476;27;20214;-57
2021/06/10 11:03:19;;;;;;;1999.90;999.90;;;23.60;60.60;;;;;;5126536;27;20229;-59
2021/06/10 11:05:46;;;;;;;1999.90;999.90;;;23.70;58.90;;;;;;5127320;27;20273;-59
2021/06/10 11:08:13;;;;;;;1999.90;999.90;;;23.70;58.70;;;;;;5125539;27;20274;-63
2021/06/10 11:10:49;;;;;;;1999.90;999.90;;;23.70;58.20;;;;;;5126467;27;20293;-58
2021/06/10 11:13:19;;;;;;;1999.90;999.90;;;23.70;57.40;;;;;;5121580;27;20248;-61
2021/06/10 11:15:50;;;;;;;1999.90;999.90;;;23.80;57.90;;;;;;5111914;28;20301;-62
2021/06/10 11:18:39;;;;;;;1999.90;999.90;;;23.80;57.00;;;;;;5113120;28;20659;-60
2021/06/10 11:21:07;;;;;;;1999.90;999.90;;;23.90;54.80;;;;;;5094545;28;20232;-49
2021/06/10 11:23:34;;;;;;;1999.90;999.90;;;24.10;54.80;;;;;;5112116;28;20210;-52
2021/06/10 11:26:03;;;;;;;1999.90;999.90;;;24.20;55.50;;;;;;5113237;28;20240;-55
2021/06/10 11:28:36;;;;;;;1999.90;999.90;;;24.30;55.20;;;;;;5112681;28;20223;-59
2021/06/10 11:31:20;;;;;;;1999.90;999.90;;;24.20;54.10;;;;;;5112572;28;20235;-59
2021/06/10 11:33:49;;;;;;;1999.90;999.90;;;24.20;53.00;;;;;;5113269;28;20568;-60
2021/06/10 11:36:17;;;;;;;1999.90;999.90;;;24.10;52.80;;;;;;5111820;28;20247;-60
2021/06/10 11:38:50;;;;;;;1999.90;999.90;;;24.10;53.40;;;;;;5112564;28;20713;-62
2021/06/10 11:41:29;;;;;;;1999.90;999.90;;;24.10;54.80;;;;;;5113362;28;20202;-57
2021/06/10 11:43:58;;;;;;;1999.90;999.90;;;24.10;53.60;;;;;;5111541;28;20275;-61
2021/06/10 11:46:38;;;;;;;1999.90;999.90;;;24.20;54.00;;;;;;5112307;27;20202;-65
2021/06/10 11:49:07;;;;;;;1999.90;999.90;;;24.30;53.40;;;;;;5113149;28;20214;-62
2021/06/10 11:51:37;;;;;;;1999.90;999.90;;;24.40;52.30;;;;;;5111661;28;20304;-59
2021/06/10 11:54:15;;;;;;;1999.90;999.90;;;24.40;51.40;;;;;;5111841;28;20234;-66
2021/06/10 11:56:44;;;;;;;1999.90;999.90;;;24.40;51.20;;;;;;5112647;28;20214;-60
2021/06/10 11:59:26;;;;;;;1999.90;999.90;;;24.50;50.10;;;;;;5111489;28;20198;-59
2021/06/10 12:14:40;;;;;;;1999.90;999.90;;;24.50;51.20;;;;;;5210040;27;20526;-55
2021/06/10 12:17:08;;;;;;;1999.90;999.90;;;25.20;48.20;;;;;;5190900;27;20183;-46
2021/06/10 12:19:35;;;;;;;1999.90;999.90;;;25.20;48.40;;;;;;5190870;27;20211;-51
2021/06/10 12:22:02;;;;;;;1999.90;999.90;;;25.20;49.60;;;;;;5190817;27;20180;-46
2021/06/10 12:24:44;;;;;;;1999.90;999.90;;;25.20;48.10;;;;;;5190516;27;20591;-45
2021/06/10 12:27:16;;;;;;;1999.90;999.90;;;25.10;49.00;;;;;;5190912;27;20260;-48
2021/06/10 12:29:52;;;;;;;1999.90;999.90;;;25.10;48.60;;;;;;5189127;27;20646;-45
2021/06/10 12:32:26;;;;;;;1999.90;999.90;;;25.00;47.60;;;;;;5190389;27;20156;-45
2021/06/10 12:34:56;;;;;;;1999.90;999.90;;;24.90;49.20;;;;;;5189943;27;20171;-46